ADDS METAR Data INFO
IDs: Format: Raw Decoded Include TAF

Data at: 0846 UTC 27 Jun 2017

K0F2 270835Z AUTO 00000KT 10SM CLR 21/21 A3005 RMK AO2 T02120212
K0F2 270815Z AUTO 00000KT 10SM CLR 21/21 A3005 RMK AO2 T02120212
K0F2 270755Z AUTO 00000KT 10SM CLR 21/21 A3005 RMK AO2 T02120212
K0F2 270735Z AUTO 00000KT 10SM CLR 22/22 A3005 RMK AO2 T02150215
K0F2 270715Z AUTO 00000KT 10SM CLR 21/21 A3006 RMK AO2 T02110211
K0F2 270655Z AUTO 00000KT 10SM CLR 21/21 A3006 RMK AO2 T02130213
K0F2 270635Z AUTO 00000KT 10SM CLR 22/22 A3007 RMK AO2 T02190219
K0F2 270615Z AUTO 00000KT 10SM CLR 22/22 A3007 RMK AO2 T02200220
K0F2 270555Z AUTO 00000KT 10SM CLR 22/22 A3007 RMK AO2 T02230221 10287 20223 402990196
K0F2 270535Z AUTO 00000KT 10SM CLR 23/22 A3007 RMK AO2 T02250221
K0F2 270515Z AUTO 00000KT 10SM CLR 23/22 A3007 RMK AO2 T02250220
K0F2 270455Z AUTO 00000KT 10SM CLR 23/22 A3006 RMK AO2 T02260220
K0F2 270435Z AUTO 00000KT 10SM CLR 23/22 A3006 RMK AO2 T02280218
K0F2 270415Z AUTO 00000KT 10SM CLR 23/22 A3006 RMK AO2 T02300215
K0F2 270355Z AUTO 14003KT 10SM CLR 23/22 A3006 RMK AO2 T02310215
K0F2 270335Z AUTO 14003KT 10SM CLR 24/21 A3005 RMK AO2 T02360209
K0F2 270315Z AUTO 00000KT 10SM CLR 24/21 A3005 RMK AO2 T02380213
K0F2 270255Z AUTO 00000KT 10SM CLR 24/22 A3005 RMK AO2 T02400216
K0F2 270235Z AUTO 00000KT 10SM CLR 24/22 A3005 RMK AO2 T02420216
K0F2 270215Z AUTO 00000KT 10SM CLR 25/21 A3005 RMK AO2 T02470210
K0F2 270155Z AUTO 00000KT 10SM CLR 25/21 A3005 RMK AO2 T02520210
K0F2 270135Z AUTO 00000KT 10SM CLR 26/21 A3005 RMK AO2 T02600208
K0F2 270115Z AUTO 11003KT 10SM CLR 27/21 A3004 RMK AO2 T02660211
K0F2 270055Z AUTO 11003KT 10SM CLR 27/21 A3004 RMK AO2 T02740210
K0F2 270035Z AUTO 11003KT 10SM CLR 28/21 A3004 RMK AO2 T02800210
K0F2 270015Z AUTO 11004KT 10SM CLR 28/21 A3003 RMK AO2 T02830210
K0F2 262355Z AUTO 09006KT 10SM SCT029 SCT036 29/21 A3003 RMK AO2 T02870210 10299 20274
K0F2 262335Z AUTO 09004KT 10SM SCT029 SCT036 28/21 A3003 RMK AO2 T02790212
K0F2 262315Z AUTO 12004KT 10SM CLR 29/21 A3004 RMK AO2 T02930211
K0F2 262255Z AUTO 12003KT 10SM SCT030 SCT046 29/21 A3004 RMK AO2 T02920213
K0F2 262235Z AUTO 06003KT 10SM SCT032 BKN044 30/22 A3004 RMK AO2 T02960216
K0F2 262215Z AUTO 11003KT 10SM SCT033 BKN042 30/21 A3005 RMK AO2 T02950208
K0F2 262155Z AUTO 00000KT 10SM SCT030 SCT036 29/21 A3005 RMK AO2 T02900211
K0F2 262135Z AUTO 00000KT 10SM SCT030 SCT035 29/22 A3006 RMK AO2 T02880215
K0F2 262115Z AUTO 07005KT 10SM SCT028 30/22 A3007 RMK AO2 T02990216
K0F2 262055Z AUTO 07003KT 10SM SCT028 SCT036 SCT075 29/21 A3007 RMK AO2 T02910213
K0F2 262035Z AUTO 08003KT 10SM CLR 29/21 A3009 RMK AO2 T02850213
K0F2 262015Z AUTO 08003KT 10SM CLR 28/21 A3010 RMK AO2 T02810213
K0F2 261955Z AUTO 09003KT 10SM CLR 28/21 A3010 RMK AO2 T02750208
K0F2 261935Z AUTO 00000KT 10SM SCT031 27/21 A3011 RMK AO2 T02740207
K0F2 261915Z AUTO 00000KT 10SM SCT031 28/21 A3012 RMK AO2 T02780210
K0F2 261855Z AUTO 00000KT 10SM SCT025 SCT039 SCT065 28/21 A3012 RMK AO2 T02810210
K0F2 261835Z AUTO 11003KT 10SM SCT027 BKN035 SCT065 28/21 A3014 RMK AO2 T02800212
K0F2 261815Z AUTO 11004KT 10SM SCT027 SCT032 28/21 A3014 RMK AO2 T02800213
K0F2 261755Z AUTO 17004KT 10SM BKN025 28/21 A3015 RMK AO2 T02780207 10279 20199
K0F2 261735Z AUTO 08004KT 10SM SCT025 SCT034 28/21 A3015 RMK AO2 T02770210
K0F2 261715Z AUTO 13003KT 10SM BKN025 BKN034 28/21 A3015 RMK AO2 T02750211
K0F2 261655Z AUTO 14003KT 10SM SCT019 28/21 A3016 RMK AO2 T02760213
K0F2 261635Z AUTO 12003KT 10SM SCT019 27/21 A3016 RMK AO2 T02690214
K0F2 261615Z AUTO 00000KT 10SM SCT039 26/21 A3017 RMK AO2 T02600210
K0F2 261555Z AUTO 14003KT 10SM SCT039 26/21 A3017 RMK AO2 T02570207
K0F2 261535Z AUTO 15003KT 10SM CLR 25/20 A3018 RMK AO2 T02490204
K0F2 261515Z AUTO 12003KT 10SM CLR 24/20 A3019 RMK AO2 T02400198
K0F2 261455Z AUTO 14003KT 10SM CLR 24/20 A3019 RMK AO2 T02360197
K0F2 261435Z AUTO 00000KT 10SM SCT044 23/20 A3019 RMK AO2 T02310197
K0F2 261415Z AUTO 00000KT 10SM SCT044 SCT120 23/20 A3019 RMK AO2 T02270196
K0F2 261355Z AUTO 10003KT 10SM BKN120 23/19 A3019 RMK AO2 T02250194
K0F2 261335Z AUTO 00000KT 10SM SCT120 22/20 A3019 RMK AO2 T02210195
K0F2 261315Z AUTO 00000KT 10SM SCT060 22/20 A3019 RMK AO2 T02180197
K0F2 261255Z AUTO 00000KT 10SM BKN060 21/20 A3018 RMK AO2 T02120196
K0F2 261235Z AUTO 10003KT 10SM SCT060 21/20 A3017 RMK AO2 T02070202
K0F2 261215Z AUTO 00000KT 10SM CLR 20/20 A3017 RMK AO2 T02030199
K0F2 261155Z AUTO 00000KT 10SM CLR 20/20 A3017 RMK AO2 T02000198 10216 20196
K0F2 261135Z AUTO 00000KT 10SM CLR 20/20 A3017 RMK AO2 T01970197
K0F2 261115Z AUTO 00000KT 10SM CLR 20/20 A3016 RMK AO2 T01990195
K0F2 261055Z AUTO 00000KT 10SM CLR 20/19 A3016 RMK AO2 T01970193
K0F2 261035Z AUTO 00000KT 10SM CLR 20/19 A3016 RMK AO2 T02000185
K0F2 261015Z AUTO 00000KT 10SM CLR 20/18 A3016 RMK AO2 T02020180
K0F2 260955Z AUTO 00000KT 10SM CLR 20/18 A3015 RMK AO2 T02030175
K0F2 260935Z AUTO 00000KT 10SM CLR 21/18 A3015 RMK AO2 T02060176
K0F2 260915Z AUTO 13003KT 10SM CLR 21/17 A3015 RMK AO2 T02070174
K0F2 260855Z AUTO 13003KT 10SM CLR 21/17 A3015 RMK AO2 T02070174
K0F2 260835Z AUTO 00000KT 10SM CLR 21/18 A3015 RMK AO2 T02070175
K0F2 260815Z AUTO 00000KT 10SM CLR 21/18 A3016 RMK AO2 T02060175
K0F2 260755Z AUTO 00000KT 10SM CLR 21/17 A3016 RMK AO2 T02050172
K0F2 260735Z AUTO 00000KT 10SM CLR 21/17 A3017 RMK AO2 T02070171
K0F2 260715Z AUTO 00000KT 10SM CLR 21/17 A3017 RMK AO2 T02070174
K0F2 260655Z AUTO 00000KT 10SM CLR 21/17 A3018 RMK AO2 T02100170
K0F2 260635Z AUTO 00000KT 10SM CLR 21/17 A3019 RMK AO2 T02120169
K0F2 260615Z AUTO 00000KT 10SM CLR 21/17 A3019 RMK AO2 T02130166
K0F2 260555Z AUTO 00000KT 10SM SCT047 22/17 A3019 RMK AO2 T02150165 10284 20215 402960182
K0F2 260535Z AUTO 00000KT 10SM SCT047 22/17 A3019 RMK AO2 T02150167
K0F2 260515Z AUTO 00000KT 10SM CLR 22/16 A3018 RMK AO2 T02180164
K0F2 260455Z AUTO 11003KT 10SM CLR 22/16 A3017 RMK AO2 T02170161
K0F2 260435Z AUTO 10003KT 10SM CLR 22/16 A3018 RMK AO2 T02200161
K0F2 260410Z AUTO 10003KT 10SM CLR 22/17 A3018 RMK AO2 T02220165
K0F2 260355Z AUTO 10003KT 10SM CLR 23/17 A3017 RMK AO2 T02250168
K0F2 260335Z AUTO 10003KT 10SM CLR 23/17 A3017 RMK AO2 T02280170
K0F2 260315Z AUTO 09004KT 10SM CLR 23/18 A3017 RMK AO2 T02310176
K0F2 260255Z AUTO 00000KT 10SM CLR 23/19 A3017 RMK AO2 T02260190
K0F2 260235Z AUTO 00000KT 10SM CLR 23/19 A3016 RMK AO2 T02310193
K0F2 260215Z AUTO 00000KT 10SM CLR 24/19 A3016 RMK AO2 T02350191
K0F2 260155Z AUTO 00000KT 10SM CLR 24/19 A3016 RMK AO2 T02400191
K0F2 260135Z AUTO 00000KT 10SM CLR 25/19 A3016 RMK AO2 T02530189
K0F2 260115Z AUTO 00000KT 10SM CLR 27/19 A3015 RMK AO2 T02650189
K0F2 260055Z AUTO 00000KT 10SM CLR 27/18 A3015 RMK AO2 T02740181
K0F2 260035Z AUTO 00000KT 10SM CLR 28/17 A3014 RMK AO2 T02770173
K0F2 260015Z AUTO 10003KT 10SM CLR 28/17 A3014 RMK AO2 T02810169
K0F2 252355Z AUTO 11005KT 10SM CLR 28/17 A3014 RMK AO2 T02840171 10296 20273
K0F2 252335Z AUTO 00000KT 10SM CLR 29/17 A3014 RMK AO2 T02850174
K0F2 252315Z AUTO 12003KT 10SM CLR 28/18 A3014 RMK AO2 T02750178
K0F2 252255Z AUTO 00000KT 10SM CLR 28/18 A3015 RMK AO2 T02750180
K0F2 252235Z AUTO 10003KT 10SM CLR 28/18 A3015 RMK AO2 T02750180
K0F2 252215Z AUTO 11003KT 10SM CLR 28/18 A3017 RMK AO2 T02800180
K0F2 252155Z AUTO 12004KT 10SM CLR 29/18 A3017 RMK AO2 T02850177
K0F2 252135Z AUTO 00000KT 10SM CLR 28/18 A3018 RMK AO2 T02800182
K0F2 252115Z AUTO 00000KT 10SM CLR 28/17 A3019 RMK AO2 T02800169
K0F2 252055Z AUTO 13006KT 10SM CLR 29/17 A3019 RMK AO2 T02920171


Page loaded:  08:46 UTC  |   01:46 AM Pacific  |   02:46 AM Mountain  |   03:46 AM Central  |   04:46 AM Eastern

 

ADVISORIES

FORECASTS

FORECASTS

OBSERVATIONS

USER TOOLS

ABOUT US